KSKF/SKF METAR and TAF weather

Enter ICAO airport designator
Station Type Date Time Source
KSKF METAR 2021/05/11 22:56 UTC NOAA

KSKF 112256Z AUTO 06013KT 9SM -RA SCT042 BKN080 22/17 A2986 RMK AO2 LTG DSNT N AND E AND SW-W RAB2156E10RAB53 SLP107 P0000 T02200169 $


Station Type Date Time Source
KSKF Decoded METAR 2021/05/11 22:56 UTC NOAA

Kelly Air Force Base, TX, United States (KSKF) 29-23N 098-35W
May 11, 2021 - 06:56 PM EDT / 2021.05.11 2256 UTC
Wind: from the ENE (060 degrees) at 15 MPH (13 KT):0
Visibility: 9 mile(s):0
Sky conditions: mostly cloudy
Weather: light rain; Lightning observed
Precipitation last hour: A trace
Temperature: 71.6 F (22.0 C)
Dew Point: 62.4 F (16.9 C)
Relative Humidity: 72%
Pressure (altimeter): 29.86 in. Hg (1011 hPa)
ob: KSKF 112256Z AUTO 06013KT 9SM -RA SCT042 BKN080 22/17 A2986 RMK AO2 LTG DSNT N AND E AND SW-W RAB2156E10RAB53 SLP107 P0000 T02200169
cycle: 23

Station Type Date Time Source
KSKF TAF 2021/05/11 21:57 UTC NOAA

TAF
AMD KSKF 1121/1224 02012G25KT 9999 VCSH SCT020 OVC040 WS007/03050KT QNH2980INS
TEMPO 1202/1204 VRB20G35KT 4000 TSRAGS BKN018 OVC035CB
BECMG 1204/1205 02009KT 9999 NSW OVC010 QNH2997INS
BECMG 1212/1213 02020G25KT 9999 BKN020 QNH3009INS
BECMG 1220/1221 03015G20KT 9999 SCT030 QNH3009INS TX30/1122Z TN16/1211Z

Example: see airport list